Time;durP1;ratioP1;P1;durP2;ratioP2;P2;SDS_P1;SDS_P2;PMS_P1;PMS_P2;Temp;Humidity;BMP_temperature;BMP_pressure;BME280_temperature;BME280_humidity;BME280_pressure;Samples;Min_cycle;Max_cycle;Signal;HPM_P1;HPM_P2
2020/12/28 00:01:51;;;;;;;0.20;0.20;;;7.80;70.80;;;;;;5009559;28;20437;-73
2020/12/28 00:04:16;;;;;;;0.70;0.30;;;7.80;70.80;;;;;;5014120;28;20041;-73
2020/12/28 00:06:48;;;;;;;0.43;0.40;;;7.80;70.80;;;;;;5010599;28;20495;-73
2020/12/28 00:09:14;;;;;;;0.20;0.20;;;7.80;70.90;;;;;;5015352;28;20037;-73
2020/12/28 00:11:40;;;;;;;0.22;0.22;;;7.80;70.90;;;;;;5014618;28;20032;-74
2020/12/28 00:14:06;;;;;;;0.28;0.20;;;7.80;70.80;;;;;;5007435;28;20038;-73
2020/12/28 00:16:32;;;;;;;0.20;0.20;;;7.80;70.80;;;;;;5007874;28;20064;-73
2020/12/28 00:18:58;;;;;;;0.22;0.20;;;7.80;70.80;;;;;;5004744;28;20126;-73
2020/12/28 00:21:24;;;;;;;0.20;0.20;;;7.90;70.90;;;;;;5006701;28;20183;-73
2020/12/28 00:23:49;;;;;;;0.63;0.43;;;7.80;70.80;;;;;;5010095;28;20034;-73
2020/12/28 00:26:15;;;;;;;0.68;0.47;;;7.90;70.90;;;;;;5008891;28;20597;-73
2020/12/28 00:28:40;;;;;;;0.32;0.32;;;7.90;70.90;;;;;;5004266;28;20026;-73
2020/12/28 00:31:08;;;;;;;0.20;0.20;;;7.90;70.90;;;;;;4998233;28;20423;-73
2020/12/28 00:33:34;;;;;;;0.40;0.32;;;7.90;71.00;;;;;;5015870;28;20038;-73
2020/12/28 00:35:59;;;;;;;0.30;0.30;;;7.90;71.00;;;;;;5018815;28;20036;-73
2020/12/28 00:38:25;;;;;;;0.40;0.40;;;7.90;71.00;;;;;;5019811;28;20052;-73
2020/12/28 00:40:50;;;;;;;0.30;0.30;;;7.80;70.90;;;;;;5020360;28;20510;-73
2020/12/28 00:43:16;;;;;;;0.35;0.35;;;7.90;70.90;;;;;;5022034;28;20030;-73
2020/12/28 00:45:41;;;;;;;0.22;0.20;;;7.90;70.90;;;;;;5019946;28;20045;-74
2020/12/28 00:48:07;;;;;;;0.20;0.20;;;7.90;70.90;;;;;;5005406;28;20053;-74
2020/12/28 00:50:33;;;;;;;0.30;0.30;;;7.90;71.00;;;;;;5011604;28;20033;-75
2020/12/28 00:52:58;;;;;;;0.28;0.28;;;8.00;71.00;;;;;;5014350;28;20121;-74
2020/12/28 00:55:24;;;;;;;0.40;0.30;;;7.90;70.90;;;;;;5016156;28;20026;-75
2020/12/28 00:57:49;;;;;;;0.20;0.20;;;7.90;71.00;;;;;;5018075;28;20026;-75
2020/12/28 01:00:15;;;;;;;0.30;0.30;;;8.00;71.00;;;;;;5013669;28;20033;-75
2020/12/28 01:02:40;;;;;;;0.40;0.35;;;8.00;71.00;;;;;;5015267;28;20072;-75
2020/12/28 01:05:06;;;;;;;0.30;0.30;;;8.00;71.00;;;;;;5011016;28;20700;-75
2020/12/28 01:07:31;;;;;;;0.28;0.25;;;8.00;71.00;;;;;;5001182;28;20034;-74
2020/12/28 01:09:57;;;;;;;0.30;0.30;;;8.00;71.00;;;;;;5007591;28;20442;-74
2020/12/28 01:12:22;;;;;;;0.32;0.30;;;8.00;71.00;;;;;;5014243;28;20030;-74
2020/12/28 01:14:48;;;;;;;0.30;0.30;;;8.00;71.00;;;;;;5013591;28;20040;-74
2020/12/28 01:17:13;;;;;;;0.30;0.30;;;8.00;71.00;;;;;;5014444;28;20028;-74
2020/12/28 01:19:39;;;;;;;0.25;0.25;;;8.00;71.00;;;;;;5015358;28;20038;-74
2020/12/28 01:22:05;;;;;;;0.55;0.32;;;8.00;70.90;;;;;;5009805;28;20570;-74
2020/12/28 01:24:30;;;;;;;0.30;0.28;;;8.10;71.00;;;;;;5015516;28;20113;-74
2020/12/28 01:26:56;;;;;;;0.30;0.30;;;8.10;71.00;;;;;;5017043;28;20449;-75
2020/12/28 01:29:21;;;;;;;0.20;0.20;;;8.00;71.00;;;;;;5011407;28;20026;-75
2020/12/28 01:31:47;;;;;;;0.10;0.10;;;8.00;71.00;;;;;;5013798;28;20052;-75
2020/12/28 01:34:12;;;;;;;0.35;0.35;;;8.00;71.00;;;;;;5012530;28;20053;-75
2020/12/28 01:36:38;;;;;;;0.35;0.35;;;8.00;70.90;;;;;;5012966;28;20033;-75
2020/12/28 01:39:04;;;;;;;0.22;0.22;;;8.00;70.90;;;;;;5012084;28;20041;-75
2020/12/28 01:41:29;;;;;;;0.20;0.20;;;8.00;70.90;;;;;;5016555;28;20030;-74
2020/12/28 01:43:55;;;;;;;0.20;0.20;;;8.10;71.00;;;;;;5021060;28;20029;-75
2020/12/28 01:46:22;;;;;;;0.25;0.25;;;8.00;70.90;;;;;;5017444;28;20037;-75
2020/12/28 01:48:48;;;;;;;0.30;0.30;;;8.00;70.90;;;;;;5018837;28;20034;-75
2020/12/28 01:51:13;;;;;;;0.30;0.30;;;8.10;70.90;;;;;;5018423;28;20030;-75
2020/12/28 01:53:39;;;;;;;0.10;0.10;;;8.10;71.00;;;;;;5018079;28;20490;-74
2020/12/28 01:56:06;;;;;;;0.30;0.30;;;8.10;70.90;;;;;;5017748;28;20042;-75
2020/12/28 01:58:32;;;;;;;0.35;0.35;;;8.00;70.90;;;;;;5015607;28;20025;-75
2020/12/28 02:00:58;;;;;;;0.20;0.10;;;8.10;70.90;;;;;;5018967;28;20172;-75
2020/12/28 02:03:25;;;;;;;0.20;0.20;;;8.10;70.80;;;;;;5021131;28;20375;-75
2020/12/28 02:05:52;;;;;;;1.08;0.60;;;8.10;70.80;;;;;;5005560;28;20038;-74
2020/12/28 02:08:17;;;;;;;0.20;0.20;;;8.00;70.80;;;;;;5016340;28;20037;-74
2020/12/28 02:10:43;;;;;;;0.20;0.20;;;8.10;70.90;;;;;;5018055;28;20033;-74
2020/12/28 02:13:08;;;;;;;0.40;0.32;;;8.10;70.90;;;;;;5017664;28;20034;-73
2020/12/28 02:15:34;;;;;;;0.20;0.20;;;8.00;70.90;;;;;;5013575;28;20025;-74
2020/12/28 02:18:00;;;;;;;0.10;0.10;;;8.00;70.90;;;;;;5014371;28;20042;-75
2020/12/28 02:20:25;;;;;;;0.20;0.20;;;8.00;70.90;;;;;;5012710;28;20038;-74
2020/12/28 02:22:51;;;;;;;0.30;0.30;;;8.00;70.90;;;;;;5009585;28;20403;-74
2020/12/28 02:25:16;;;;;;;0.30;0.30;;;8.10;71.10;;;;;;5015886;28;20026;-75
2020/12/28 02:27:42;;;;;;;0.10;0.10;;;8.00;71.00;;;;;;5016589;28;20026;-74
2020/12/28 02:30:07;;;;;;;0.10;0.10;;;8.00;71.10;;;;;;5014870;28;20121;-75
2020/12/28 02:32:33;;;;;;;0.17;0.17;;;8.00;71.10;;;;;;5007291;28;20034;-74
2020/12/28 02:34:58;;;;;;;0.20;0.20;;;8.00;71.00;;;;;;5000756;28;20031;-74
2020/12/28 02:37:24;;;;;;;0.30;0.30;;;8.00;71.00;;;;;;4998276;28;20566;-74
2020/12/28 02:39:50;;;;;;;0.13;0.13;;;8.00;71.00;;;;;;5001464;28;20044;-75
2020/12/28 02:42:15;;;;;;;0.30;0.30;;;8.00;71.10;;;;;;4998046;28;20038;-74
2020/12/28 02:44:41;;;;;;;0.15;0.15;;;8.10;71.20;;;;;;5002192;28;20018;-74
2020/12/28 02:47:06;;;;;;;0.28;0.28;;;8.10;71.10;;;;;;4997455;28;20125;-74
2020/12/28 02:49:32;;;;;;;0.10;0.10;;;8.10;71.10;;;;;;5001950;28;20498;-74
2020/12/28 02:51:57;;;;;;;0.30;0.30;;;8.00;71.00;;;;;;5001029;28;20037;-73
2020/12/28 02:54:23;;;;;;;0.10;0.10;;;8.10;71.10;;;;;;4999091;28;20999;-74
2020/12/28 02:56:48;;;;;;;0.10;0.10;;;8.00;71.00;;;;;;5000842;28;20029;-74
2020/12/28 02:59:14;;;;;;;0.20;0.20;;;8.10;71.10;;;;;;4994926;28;20030;-73
2020/12/28 03:01:39;;;;;;;0.10;0.10;;;8.10;71.00;;;;;;5002908;28;20029;-75
2020/12/28 03:04:05;;;;;;;0.20;0.20;;;8.10;71.00;;;;;;4999474;28;20041;-75
2020/12/28 03:06:31;;;;;;;0.25;0.20;;;8.10;71.00;;;;;;4991255;28;20076;-74
2020/12/28 03:08:56;;;;;;;0.60;0.28;;;8.10;71.00;;;;;;4996639;28;20391;-75
2020/12/28 03:11:22;;;;;;;0.25;0.20;;;8.00;71.00;;;;;;4997810;28;20030;-75
2020/12/28 03:13:48;;;;;;;0.20;0.20;;;8.00;71.00;;;;;;5002745;28;20124;-75
2020/12/28 03:16:13;;;;;;;0.30;0.20;;;8.10;71.00;;;;;;4998452;28;20379;-75
2020/12/28 03:18:39;;;;;;;0.10;0.10;;;8.20;71.10;;;;;;4999654;28;20050;-75
2020/12/28 03:21:05;;;;;;;0.30;0.25;;;8.10;71.10;;;;;;4992477;28;20054;-75
2020/12/28 03:23:31;;;;;;;0.15;0.15;;;8.10;71.10;;;;;;4996789;28;20029;-74
2020/12/28 03:25:56;;;;;;;0.20;0.20;;;8.00;71.00;;;;;;5002975;28;20029;-74
2020/12/28 03:28:22;;;;;;;0.20;0.20;;;8.00;71.00;;;;;;4994185;28;20434;-74
2020/12/28 03:30:49;;;;;;;0.20;0.20;;;8.10;71.10;;;;;;4999452;28;20034;-75
2020/12/28 03:33:14;;;;;;;0.30;0.20;;;8.00;71.00;;;;;;4993687;28;20034;-75
2020/12/28 03:35:40;;;;;;;0.28;0.28;;;8.10;71.10;;;;;;5001882;28;20038;-74
2020/12/28 03:38:06;;;;;;;0.20;0.20;;;8.00;71.10;;;;;;5001669;28;20499;-74
2020/12/28 03:40:32;;;;;;;0.20;0.20;;;8.10;71.10;;;;;;4997523;28;20398;-74
2020/12/28 03:42:58;;;;;;;0.65;0.30;;;8.10;71.10;;;;;;5002077;28;20068;-74
2020/12/28 03:45:23;;;;;;;0.20;0.20;;;8.00;71.10;;;;;;4996328;28;20081;-74
2020/12/28 03:47:49;;;;;;;0.22;0.22;;;8.10;71.10;;;;;;5000992;28;20407;-74
2020/12/28 03:50:14;;;;;;;0.30;0.30;;;8.10;71.10;;;;;;4997227;28;20159;-74
2020/12/28 03:52:40;;;;;;;0.35;0.32;;;8.10;71.10;;;;;;5001013;28;20079;-74
2020/12/28 03:55:06;;;;;;;0.50;0.30;;;8.10;71.10;;;;;;4999967;28;20406;-74
2020/12/28 03:57:32;;;;;;;0.40;0.30;;;8.10;71.10;;;;;;4995735;28;20033;-74
2020/12/28 03:59:58;;;;;;;0.40;0.30;;;8.10;71.60;;;;;;4998144;28;20137;-75
2020/12/28 04:02:23;;;;;;;0.30;0.30;;;8.10;71.20;;;;;;4995968;28;20491;-74
2020/12/28 04:04:49;;;;;;;0.52;0.43;;;8.00;71.10;;;;;;4998149;28;20486;-75
2020/12/28 04:09:50;;;;;;;0.47;0.30;;;8.10;71.20;;;;;;4951091;28;20047;-74
2020/12/28 04:12:16;;;;;;;0.22;0.20;;;8.10;71.20;;;;;;4949346;28;20046;-75
2020/12/28 04:14:41;;;;;;;0.25;0.25;;;8.00;71.20;;;;;;4943763;28;20026;-75
2020/12/28 04:17:07;;;;;;;0.73;0.40;;;8.10;71.20;;;;;;4952817;28;20046;-74
2020/12/28 04:19:32;;;;;;;0.20;0.20;;;8.10;71.20;;;;;;4947387;28;20030;-73
2020/12/28 04:21:58;;;;;;;0.50;0.40;;;8.10;71.20;;;;;;4951152;28;20031;-74
2020/12/28 04:24:23;;;;;;;0.30;0.30;;;8.10;71.20;;;;;;4948960;28;20121;-74
2020/12/28 04:26:49;;;;;;;0.40;0.40;;;8.10;71.20;;;;;;4954024;28;20038;-74
2020/12/28 04:29:14;;;;;;;0.30;0.30;;;8.10;71.20;;;;;;4950948;28;20035;-74
2020/12/28 04:31:43;;;;;;;0.20;0.20;;;8.10;71.20;;;;;;4947434;28;20093;-76
2020/12/28 04:34:09;;;;;;;0.40;0.32;;;8.10;71.20;;;;;;4951900;28;20034;-74
2020/12/28 04:36:36;;;;;;;0.40;0.40;;;8.10;71.20;;;;;;4944641;28;20031;-76
2020/12/28 04:39:04;;;;;;;0.15;0.15;;;8.10;71.30;;;;;;4949861;28;20034;-74
2020/12/28 04:41:29;;;;;;;0.30;0.30;;;8.20;71.30;;;;;;4938055;28;20110;-74
2020/12/28 04:43:55;;;;;;;0.38;0.38;;;8.20;71.30;;;;;;4947636;28;20122;-75
2020/12/28 04:46:20;;;;;;;0.63;0.38;;;8.10;71.30;;;;;;4950270;28;20046;-74
2020/12/28 04:48:47;;;;;;;0.38;0.38;;;8.10;71.30;;;;;;4946980;28;20389;-74
2020/12/28 04:51:13;;;;;;;0.30;0.30;;;8.10;71.20;;;;;;4946188;28;21189;-74
2020/12/28 04:53:41;;;;;;;0.38;0.38;;;8.20;71.30;;;;;;4943077;28;20109;-74
2020/12/28 04:56:07;;;;;;;0.45;0.40;;;8.10;71.20;;;;;;4952079;28;20042;-74
2020/12/28 04:58:33;;;;;;;0.30;0.22;;;8.20;71.30;;;;;;4947820;28;20027;-74
2020/12/28 05:01:00;;;;;;;0.20;0.20;;;8.20;71.30;;;;;;4949749;28;20400;-74
2020/12/28 05:03:27;;;;;;;0.50;0.30;;;8.20;71.30;;;;;;4948814;28;20110;-76
2020/12/28 05:05:52;;;;;;;0.20;0.20;;;8.20;71.30;;;;;;4952510;28;20046;-75
2020/12/28 05:08:19;;;;;;;0.30;0.30;;;8.30;71.30;;;;;;4948899;28;20089;-74
2020/12/28 05:10:44;;;;;;;0.40;0.40;;;8.20;71.20;;;;;;4967199;28;20074;-73
2020/12/28 05:13:11;;;;;;;0.25;0.25;;;8.30;71.30;;;;;;4969511;28;20035;-75
2020/12/28 05:15:48;;;;;;;0.20;0.20;;;8.20;71.30;;;;;;4970996;28;20570;-74
2020/12/28 05:18:15;;;;;;;0.22;0.22;;;8.20;71.30;;;;;;4974058;28;20535;-75
2020/12/28 05:20:43;;;;;;;0.30;0.30;;;8.20;71.30;;;;;;4971447;28;20528;-74
2020/12/28 05:23:09;;;;;;;0.22;0.20;;;8.30;71.30;;;;;;4973856;28;20062;-74
2020/12/28 05:25:35;;;;;;;0.35;0.35;;;8.20;71.20;;;;;;4973943;28;20087;-74
2020/12/28 05:28:02;;;;;;;0.50;0.43;;;8.30;71.20;;;;;;4973727;28;20401;-75
2020/12/28 05:30:32;;;;;;;0.20;0.20;;;8.20;71.10;;;;;;4965607;28;20030;-74
2020/12/28 05:33:03;;;;;;;0.30;0.30;;;8.20;71.10;;;;;;4973352;28;20174;-75
2020/12/28 05:35:29;;;;;;;0.10;0.10;;;8.20;71.10;;;;;;4971296;28;20400;-75
2020/12/28 05:37:56;;;;;;;0.43;0.38;;;8.20;71.00;;;;;;4973832;28;20027;-74
2020/12/28 05:40:22;;;;;;;0.30;0.30;;;8.20;71.00;;;;;;4969241;28;20027;-74
2020/12/28 05:42:53;;;;;;;0.35;0.30;;;8.20;71.00;;;;;;4960921;28;20042;-75
2020/12/28 05:45:19;;;;;;;0.32;0.20;;;8.20;71.10;;;;;;4967139;28;20027;-76
2020/12/28 05:47:53;;;;;;;0.30;0.30;;;8.20;71.10;;;;;;4973221;28;20023;-75
2020/12/28 05:50:24;;;;;;;0.40;0.40;;;8.20;71.20;;;;;;4962383;28;20027;-75
2020/12/28 05:52:57;;;;;;;0.28;0.28;;;8.20;71.30;;;;;;4972949;28;20401;-75
2020/12/28 05:55:25;;;;;;;0.30;0.30;;;8.10;71.20;;;;;;4969820;28;20396;-75
2020/12/28 05:57:53;;;;;;;0.40;0.32;;;8.10;71.30;;;;;;4969416;28;20031;-74
2020/12/28 06:00:18;;;;;;;0.30;0.30;;;8.10;71.30;;;;;;4969016;28;20081;-75
2020/12/28 06:02:44;;;;;;;0.40;0.30;;;8.10;71.30;;;;;;4972838;28;20503;-74
2020/12/28 06:05:12;;;;;;;0.40;0.40;;;8.10;71.30;;;;;;4970615;28;20544;-76
2020/12/28 06:07:38;;;;;;;0.32;0.32;;;8.20;71.30;;;;;;4972872;28;20432;-73
2020/12/28 06:10:05;;;;;;;0.28;0.28;;;8.10;71.20;;;;;;4973116;28;20027;-74
2020/12/28 06:12:31;;;;;;;0.40;0.40;;;8.20;71.20;;;;;;4969392;28;20035;-73
2020/12/28 06:14:56;;;;;;;0.35;0.35;;;8.20;71.20;;;;;;4960453;28;20027;-74
2020/12/28 06:17:39;;;;;;;1.15;0.50;;;8.10;71.10;;;;;;4961452;28;20034;-74
2020/12/28 06:20:07;;;;;;;0.20;0.20;;;8.10;71.20;;;;;;4965591;28;20106;-75
2020/12/28 06:22:33;;;;;;;0.30;0.30;;;8.20;71.20;;;;;;4972118;28;20110;-72
2020/12/28 06:25:00;;;;;;;0.30;0.30;;;8.10;71.30;;;;;;4969082;28;20027;-75
2020/12/28 06:27:33;;;;;;;0.40;0.40;;;8.20;71.40;;;;;;4968687;28;20055;-74
2020/12/28 06:30:13;;;;;;;0.30;0.30;;;8.10;71.40;;;;;;4956787;28;20034;-75
2020/12/28 06:32:40;;;;;;;0.28;0.28;;;8.20;71.50;;;;;;4967231;28;20062;-75
2020/12/28 06:35:09;;;;;;;0.40;0.40;;;8.20;71.40;;;;;;4965221;28;20054;-74
2020/12/28 06:37:48;;;;;;;0.52;0.30;;;8.10;71.40;;;;;;4968092;28;20058;-74
2020/12/28 06:40:27;;;;;;;0.95;0.50;;;8.30;71.50;;;;;;4965529;28;20030;-74
2020/12/28 06:42:53;;;;;;;0.43;0.43;;;8.10;71.40;;;;;;4960304;28;20501;-75
2020/12/28 06:45:18;;;;;;;0.40;0.40;;;8.20;71.30;;;;;;4965430;28;20034;-74
2020/12/28 06:47:44;;;;;;;0.65;0.50;;;8.10;71.20;;;;;;4968977;28;20525;-75
2020/12/28 06:50:10;;;;;;;0.50;0.50;;;8.10;71.20;;;;;;4966907;28;20032;-75
2020/12/28 06:52:36;;;;;;;0.50;0.50;;;8.10;71.60;;;;;;4968768;28;20051;-73
2020/12/28 06:55:09;;;;;;;0.40;0.40;;;8.10;71.10;;;;;;4972064;28;20063;-75
2020/12/28 06:57:35;;;;;;;0.40;0.40;;;8.10;71.10;;;;;;4972021;28;20031;-75
2020/12/28 07:00:00;;;;;;;0.88;0.60;;;8.00;71.10;;;;;;4965900;28;20058;-76
2020/12/28 07:02:26;;;;;;;0.93;0.68;;;8.00;71.20;;;;;;4966735;28;20066;-76
2020/12/28 07:04:52;;;;;;;0.52;0.47;;;8.10;71.30;;;;;;4965096;28;20031;-75
2020/12/28 07:07:17;;;;;;;0.40;0.40;;;8.00;71.30;;;;;;4966759;28;20042;-74
2020/12/28 07:09:46;;;;;;;0.50;0.40;;;8.00;71.40;;;;;;4965273;28;20053;-75
2020/12/28 07:12:11;;;;;;;0.40;0.40;;;8.00;71.50;;;;;;4966585;28;20035;-73
2020/12/28 07:14:38;;;;;;;1.00;0.70;;;8.00;71.50;;;;;;4965976;28;20042;-76
2020/12/28 07:17:07;;;;;;;0.43;0.43;;;8.10;71.60;;;;;;4966577;28;20054;-75
2020/12/28 07:19:33;;;;;;;0.88;0.63;;;8.10;71.60;;;;;;4967641;28;20041;-74
2020/12/28 07:21:59;;;;;;;1.23;0.40;;;8.10;71.60;;;;;;4984926;28;20557;-79
2020/12/28 07:24:24;;;;;;;0.77;0.60;;;8.10;72.30;;;;;;4967883;28;20134;-76
2020/12/28 07:26:50;;;;;;;0.80;0.60;;;8.10;72.90;;;;;;4967534;28;20038;-76
2020/12/28 07:29:18;;;;;;;0.47;0.40;;;8.20;73.00;;;;;;4967070;28;20046;-78
2020/12/28 07:31:45;;;;;;;0.65;0.60;;;8.30;72.80;;;;;;4968410;28;20110;-76
2020/12/28 07:34:19;;;;;;;0.77;0.70;;;8.30;72.40;;;;;;4968778;28;20031;-76
2020/12/28 07:36:47;;;;;;;1.55;0.40;;;8.30;72.10;;;;;;4966038;28;20117;-76
2020/12/28 07:39:13;;;;;;;0.60;0.40;;;8.40;71.90;;;;;;4967345;28;20101;-76
2020/12/28 07:41:39;;;;;;;0.70;0.50;;;8.40;71.70;;;;;;4960440;28;20382;-76
2020/12/28 07:44:05;;;;;;;0.60;0.47;;;8.40;71.60;;;;;;4961708;28;20038;-76
2020/12/28 07:46:51;;;;;;;0.45;0.45;;;8.40;71.60;;;;;;4968487;28;20054;-76
2020/12/28 07:49:27;;;;;;;0.45;0.45;;;8.40;71.50;;;;;;4969037;28;20035;-76
2020/12/28 07:51:58;;;;;;;0.70;0.50;;;8.40;71.50;;;;;;4959999;28;20034;-77
2020/12/28 07:54:30;;;;;;;0.30;0.30;;;8.50;71.50;;;;;;4967639;28;20133;-77
2020/12/28 07:57:02;;;;;;;0.40;0.40;;;8.60;71.50;;;;;;4964018;28;20039;-78
2020/12/28 07:59:49;;;;;;;0.60;0.50;;;8.50;71.50;;;;;;4962961;28;20503;-76
2020/12/28 08:02:36;;;;;;;0.52;0.50;;;8.50;71.50;;;;;;4967776;28;20045;-76
2020/12/28 08:05:02;;;;;;;0.60;0.40;;;8.40;72.00;;;;;;4961570;28;20032;-76
2020/12/28 08:07:33;;;;;;;0.45;0.45;;;8.40;71.40;;;;;;4964530;28;20404;-74
2020/12/28 08:09:59;;;;;;;0.40;0.40;;;8.40;71.50;;;;;;4958105;28;20086;-77
2020/12/28 08:15:46;;;;;;;0.40;0.40;;;8.40;71.80;;;;;;4958732;28;20089;-74
2020/12/28 08:18:12;;;;;;;0.50;0.50;;;8.50;71.70;;;;;;4953455;28;20497;-73
2020/12/28 08:20:39;;;;;;;0.55;0.40;;;8.40;71.60;;;;;;4957202;28;20035;-74
2020/12/28 08:23:05;;;;;;;0.52;0.52;;;8.40;71.60;;;;;;4963299;28;20030;-72
2020/12/28 08:25:31;;;;;;;0.45;0.40;;;8.50;71.60;;;;;;4968561;28;20026;-74
2020/12/28 08:27:59;;;;;;;0.50;0.40;;;8.40;71.50;;;;;;4965459;28;20027;-73
2020/12/28 08:30:29;;;;;;;0.45;0.40;;;8.40;71.50;;;;;;4966560;28;20030;-74
2020/12/28 08:32:59;;;;;;;0.57;0.50;;;8.50;71.50;;;;;;4964155;28;20034;-74
2020/12/28 08:35:25;;;;;;;0.52;0.52;;;8.50;71.50;;;;;;4966137;28;20045;-74
2020/12/28 08:37:52;;;;;;;0.43;0.43;;;8.50;71.60;;;;;;4965133;28;20054;-73
2020/12/28 08:40:23;;;;;;;0.70;0.60;;;8.50;71.60;;;;;;4967285;28;20031;-74
2020/12/28 08:42:53;;;;;;;0.38;0.35;;;8.50;71.60;;;;;;4960279;28;20392;-75
2020/12/28 08:45:24;;;;;;;0.73;0.40;;;8.60;71.70;;;;;;4956759;28;20031;-74
2020/12/28 08:47:54;;;;;;;0.70;0.52;;;8.50;71.60;;;;;;4967996;28;20130;-74
2020/12/28 08:50:21;;;;;;;0.50;0.50;;;8.60;71.70;;;;;;4959149;28;20511;-73
2020/12/28 08:52:52;;;;;;;0.55;0.50;;;8.50;71.70;;;;;;4955365;28;20030;-75
2020/12/28 08:55:19;;;;;;;0.77;0.77;;;8.60;71.80;;;;;;4954946;28;20574;-74
2020/12/28 08:58:04;;;;;;;0.38;0.38;;;8.70;71.80;;;;;;4964832;28;20408;-74
2020/12/28 09:00:30;;;;;;;0.75;0.60;;;8.60;71.70;;;;;;4964515;28;20118;-73
2020/12/28 09:02:59;;;;;;;0.57;0.57;;;8.60;71.50;;;;;;4964463;28;20114;-74
2020/12/28 09:05:29;;;;;;;0.80;0.63;;;8.60;71.50;;;;;;4960358;28;20035;-73
2020/12/28 09:07:54;;;;;;;0.60;0.60;;;8.60;71.50;;;;;;4955866;28;20035;-74
2020/12/28 09:10:20;;;;;;;0.60;0.50;;;8.60;71.50;;;;;;4959770;28;20520;-75
2020/12/28 09:12:45;;;;;;;0.40;0.40;;;8.60;71.50;;;;;;4962944;28;20059;-74
2020/12/28 09:15:11;;;;;;;0.70;0.40;;;8.70;71.50;;;;;;4945287;28;20042;-74
2020/12/28 09:17:37;;;;;;;0.85;0.60;;;8.60;71.50;;;;;;4944250;28;20027;-74
2020/12/28 09:20:04;;;;;;;0.40;0.40;;;8.60;71.60;;;;;;4949448;28;20389;-73
2020/12/28 09:22:29;;;;;;;0.95;0.73;;;8.70;71.60;;;;;;4955248;28;20031;-74
2020/12/28 09:24:55;;;;;;;0.55;0.50;;;8.60;71.70;;;;;;4950034;28;20031;-74
2020/12/28 09:30:07;;;;;;;0.88;0.70;;;8.60;71.70;;;;;;4951030;23;20579;-73
2020/12/28 09:32:32;;;;;;;0.50;0.50;;;8.60;71.70;;;;;;4943609;28;20034;-74
2020/12/28 09:34:58;;;;;;;0.57;0.50;;;8.70;71.70;;;;;;4944381;28;20046;-73
2020/12/28 09:37:23;;;;;;;0.50;0.50;;;8.70;71.70;;;;;;4944095;28;20035;-73
2020/12/28 09:39:49;;;;;;;0.57;0.57;;;8.70;71.70;;;;;;4938561;28;20023;-72
2020/12/28 09:42:14;;;;;;;0.57;0.57;;;8.70;71.70;;;;;;4945175;28;20118;-72
2020/12/28 09:44:40;;;;;;;0.60;0.60;;;8.80;71.70;;;;;;4938690;28;20042;-75
2020/12/28 09:47:06;;;;;;;0.63;0.50;;;8.80;71.60;;;;;;4945907;28;20097;-73
2020/12/28 09:49:32;;;;;;;0.40;0.40;;;8.80;71.60;;;;;;4945026;28;20059;-73
2020/12/28 09:51:57;;;;;;;0.68;0.60;;;8.80;71.60;;;;;;4939266;28;20035;-74
2020/12/28 09:54:23;;;;;;;0.47;0.40;;;8.80;71.60;;;;;;4945436;28;20035;-74
2020/12/28 09:56:49;;;;;;;0.73;0.60;;;8.80;71.60;;;;;;4938941;28;20053;-74
2020/12/28 09:59:15;;;;;;;0.63;0.63;;;8.80;71.60;;;;;;4942691;28;20046;-74
2020/12/28 10:01:45;;;;;;;0.50;0.40;;;8.80;71.60;;;;;;4939210;28;20497;-74
2020/12/28 10:04:11;;;;;;;0.60;0.47;;;8.80;71.60;;;;;;4946517;28;20046;-74
2020/12/28 10:06:37;;;;;;;0.50;0.43;;;8.80;71.60;;;;;;4947413;28;20047;-73
2020/12/28 10:09:04;;;;;;;1.15;0.70;;;8.80;71.60;;;;;;4973637;23;20381;-72
2020/12/28 10:11:30;;;;;;;0.60;0.60;;;8.80;71.60;;;;;;4953140;28;20074;-72
2020/12/28 10:13:56;;;;;;;0.60;0.45;;;8.90;71.80;;;;;;4940194;28;20035;-72
2020/12/28 10:16:26;;;;;;;0.50;0.50;;;8.90;71.90;;;;;;4947140;28;20601;-72
2020/12/28 10:18:55;;;;;;;0.50;0.50;;;8.90;71.90;;;;;;4951287;28;20106;-72
2020/12/28 10:21:22;;;;;;;0.57;0.57;;;9.00;72.00;;;;;;4979766;28;20521;-74
2020/12/28 10:23:48;;;;;;;1.90;0.73;;;9.00;72.00;;;;;;4987760;28;20033;-73
2020/12/28 10:26:17;;;;;;;0.50;0.50;;;9.00;71.90;;;;;;4982233;28;20050;-74
2020/12/28 10:28:43;;;;;;;0.70;0.70;;;9.10;71.90;;;;;;4984638;28;20121;-74
2020/12/28 10:31:09;;;;;;;1.00;0.77;;;9.10;71.80;;;;;;4980973;28;20050;-72
2020/12/28 10:33:37;;;;;;;1.05;0.70;;;9.10;71.80;;;;;;4980810;28;20490;-73
2020/12/28 10:36:02;;;;;;;0.68;0.68;;;9.10;71.80;;;;;;4977990;28;20030;-73
2020/12/28 10:38:28;;;;;;;0.77;0.77;;;9.10;71.70;;;;;;4983674;28;20516;-73
2020/12/28 10:40:53;;;;;;;0.80;0.80;;;9.20;71.70;;;;;;4977571;28;20038;-74
2020/12/28 10:43:19;;;;;;;0.75;0.70;;;9.20;71.70;;;;;;5062002;22;20062;-72
2020/12/28 10:45:44;;;;;;;0.93;0.90;;;9.20;71.70;;;;;;4972891;28;20049;-73
2020/12/28 10:48:10;;;;;;;0.60;0.60;;;9.20;71.60;;;;;;4958399;28;20042;-72
2020/12/28 10:50:35;;;;;;;0.80;0.80;;;9.30;71.60;;;;;;4959284;28;20105;-72
2020/12/28 10:53:01;;;;;;;1.08;0.98;;;9.30;71.60;;;;;;4949918;28;20573;-73
2020/12/28 10:55:26;;;;;;;1.65;1.55;;;9.20;71.50;;;;;;4961802;28;20027;-73
2020/12/28 10:57:51;;;;;;;1.20;1.10;;;9.30;71.60;;;;;;4957733;28;20034;-73
2020/12/28 11:00:17;;;;;;;1.20;1.10;;;9.20;71.50;;;;;;4961163;28;20829;-74
2020/12/28 11:02:42;;;;;;;1.10;1.00;;;9.30;71.60;;;;;;4958847;28;20081;-72
2020/12/28 11:05:08;;;;;;;1.25;1.10;;;9.30;71.60;;;;;;4956114;28;20461;-72
2020/12/28 11:07:33;;;;;;;1.15;1.05;;;9.30;71.60;;;;;;4967031;28;20042;-73
2020/12/28 11:09:59;;;;;;;1.27;1.17;;;9.30;71.60;;;;;;4949357;28;20053;-73
2020/12/28 11:12:24;;;;;;;1.25;1.10;;;9.30;71.50;;;;;;4961511;28;20117;-72
2020/12/28 11:14:50;;;;;;;1.58;1.15;;;9.30;71.40;;;;;;4962980;28;20038;-72
2020/12/28 11:17:15;;;;;;;1.38;1.27;;;9.30;71.40;;;;;;4958057;28;20443;-72
2020/12/28 11:19:41;;;;;;;1.65;1.48;;;9.40;71.40;;;;;;4957954;28;20050;-71
2020/12/28 11:22:07;;;;;;;1.45;1.35;;;9.40;71.30;;;;;;4957103;28;20038;-74
2020/12/28 11:24:32;;;;;;;1.58;1.48;;;9.40;71.30;;;;;;4960443;28;20023;-76
2020/12/28 11:26:58;;;;;;;2.03;1.83;;;9.40;71.30;;;;;;4953835;28;20389;-76
2020/12/28 11:29:23;;;;;;;2.15;1.95;;;9.30;71.30;;;;;;4958895;28;20685;-77
2020/12/28 11:31:49;;;;;;;1.73;1.58;;;9.40;71.40;;;;;;4961573;28;20113;-77
2020/12/28 11:34:14;;;;;;;1.58;1.48;;;9.30;71.40;;;;;;4962045;28;20090;-73
2020/12/28 11:36:43;;;;;;;1.63;1.40;;;9.40;71.50;;;;;;4963703;28;20050;-75
2020/12/28 11:39:14;;;;;;;1.73;1.60;;;9.30;71.50;;;;;;4954792;28;20577;-72
2020/12/28 11:41:39;;;;;;;1.85;1.73;;;9.30;71.60;;;;;;4954313;28;20038;-75
2020/12/28 11:44:09;;;;;;;2.22;2.03;;;9.30;71.60;;;;;;4948068;28;20046;-71
2020/12/28 11:46:35;;;;;;;1.75;1.63;;;9.40;71.70;;;;;;4958427;28;20035;-73
2020/12/28 11:49:00;;;;;;;2.00;1.80;;;9.50;71.70;;;;;;4953891;28;20575;-74
2020/12/28 11:51:26;;;;;;;2.78;1.92;;;9.40;71.60;;;;;;4961196;28;20030;-72
2020/12/28 11:53:51;;;;;;;2.13;1.92;;;9.40;71.60;;;;;;4963673;28;20042;-72
2020/12/28 11:56:18;;;;;;;2.20;2.00;;;9.40;71.60;;;;;;4955981;28;20435;-72
2020/12/28 11:58:45;;;;;;;2.15;1.95;;;9.50;71.50;;;;;;4959036;28;20752;-73
2020/12/28 12:01:16;;;;;;;1.98;1.77;;;9.40;71.40;;;;;;4956430;28;20038;-73
2020/12/28 12:03:44;;;;;;;;;;;9.50;71.50;;;;;;4961850;28;20785;-74
2020/12/28 12:06:13;;;;;;;2.03;1.85;;;9.50;71.20;;;;;;4967064;28;19977;-75
2020/12/28 12:09:08;;;;;;;2.53;2.30;;;9.50;71.70;;;;;;4974873;28;20503;-73
2020/12/28 12:11:24;;;;;;;2.35;2.15;;;9.60;72.00;;;;;;4971406;28;20069;-73
2020/12/28 12:13:50;;;;;;;2.25;2.05;;;9.60;72.30;;;;;;4977196;28;20177;-72
2020/12/28 12:16:23;;;;;;;2.60;2.40;;;9.90;72.50;;;;;;4976740;28;20673;-74
2020/12/28 12:18:49;;;;;;;3.08;2.30;;;9.80;72.40;;;;;;4979271;28;20029;-73
2020/12/28 12:21:15;;;;;;;2.55;2.35;;;9.80;72.40;;;;;;4976116;28;20042;-73
2020/12/28 12:23:40;;;;;;;2.53;2.33;;;9.80;72.50;;;;;;4977719;28;20066;-73
2020/12/28 12:26:06;;;;;;;2.45;1.98;;;9.90;72.40;;;;;;4978484;28;20035;-72
2020/12/28 12:28:32;;;;;;;2.97;2.42;;;10.00;72.30;;;;;;4978437;28;20038;-71
2020/12/28 12:30:57;;;;;;;2.60;2.20;;;10.00;72.10;;;;;;4977563;28;20120;-73
2020/12/28 12:33:23;;;;;;;2.50;2.30;;;10.10;72.00;;;;;;4979106;28;20072;-73
2020/12/28 12:35:48;;;;;;;2.40;2.20;;;10.10;71.80;;;;;;4976259;28;20034;-71
2020/12/28 12:38:14;;;;;;;2.42;2.17;;;10.20;71.70;;;;;;4979281;28;20121;-71
2020/12/28 12:40:39;;;;;;;2.75;2.50;;;10.20;71.60;;;;;;4978132;28;20038;-71
2020/12/28 12:43:05;;;;;;;2.53;2.33;;;10.30;71.50;;;;;;4977201;28;20176;-72
2020/12/28 12:45:30;;;;;;;2.58;2.25;;;10.20;71.40;;;;;;4976757;28;20779;-72
2020/12/28 12:47:56;;;;;;;2.40;2.20;;;10.20;71.30;;;;;;4979464;28;20064;-73
2020/12/28 12:50:21;;;;;;;2.30;2.10;;;10.20;71.40;;;;;;4977718;28;20050;-72
2020/12/28 12:52:47;;;;;;;2.65;2.45;;;10.20;71.40;;;;;;4978448;28;20046;-72
2020/12/28 12:55:12;;;;;;;2.50;2.22;;;10.20;71.40;;;;;;4978866;28;20042;-72
2020/12/28 12:57:38;;;;;;;2.83;2.58;;;10.30;71.40;;;;;;4978153;28;20042;-71
2020/12/28 13:00:05;;;;;;;2.33;2.13;;;10.30;71.40;;;;;;4976561;28;20043;-73
2020/12/28 13:02:33;;;;;;;2.92;2.63;;;10.30;71.30;;;;;;4977295;28;20042;-73
2020/12/28 13:05:03;;;;;;;2.60;2.38;;;10.30;71.20;;;;;;4976781;28;20046;-72